Leland, IL (60531)

1:02 PM CDT on September 03, 2015 (GMT -0500)
Farm 34 | | Change Station
CLOSE
Current Station
Personal Weather Station
Location: Earlville, IL
Elevation: 699 ft
Nearby Weather Stations

Elev 699 ft 41.59 °N, 88.85 °W | Updated 9 minutes ago

Clear
Clear
86.3 °F
Feels Like 93 °F
N
3.0
Wind Variable Wind from SW
Gusts 11.0 mph

Today
High -- | Low -- °F
--% Chance of Precip.
Yesterday
High -- | Low -- °F
Precip. -- in
6:22 AM 7:25 PM
Waning Gibbous, 68% visible
Pressure 29.94 in
Visibility 10.0 miles
Clouds Scattered Clouds 3700 ft
Heat Index 93 °F
Dew Point 73 °F
Humidity 64%
Rainfall 0.00 in
Snow Depth Not available.
UV 7 out of 12
Pollen 6.50 out of 12
Air Quality Not available.
Flu Activity Not available.
METAR KARR 031752Z 24009G15KT 10SM SCT037 32/22 A2995 RMK AO2 SLP136 T03170222 10317 20217 58005
Pressure 29.94 in
Visibility 10.0 miles
Clouds Scattered Clouds 3700 ft
Heat Index 93 °F
Dew Point 73 °F
Humidity 64%
Rainfall 0.00 in
Snow Depth Not available.
UV 7 out of 12
Pollen 6.50 out of 12
Air Quality Not available.
Flu Activity Not available.
METAR KARR 031752Z 24009G15KT 10SM SCT037 32/22 A2995 RMK AO2 SLP136 T03170222 10317 20217 58005

10-Day Weather Forecast

×

Almanac

Astronomy

Sep. 03, 2015 Rise Set
Actual Time
Civil Twilight
Nautical Twilight
Astronomical Twilight
Moon
Length of Visible Light
Length of Day
Tomorrow will be .
, % of the Moon is Illuminated

Today's Extremes

State Highs State Lows

Community

WunderPhotos

Upload Photos

1,851,995 photos uploaded!

WunderBlogs® & News

Nearby

Air Quality

  Air Quality AQ Index Pollutant
Not available.

Snow Depth

Station Depth Elevation

Earthquake Activity

City Distance Mag. Time & Date
Minimum magnitude displayed is 2.5.

Coastal Water Temperatures

Place Temperature

Stations

Nearby Weather Stations

Station Location Temp. Windchill Dew Point Humidity Wind Precip. Elev Updated Type